Cascade, MT

1:51 AM MST on December 28, 2014 (GMT -0700)
Trout Montana Fly Shop, Cascade, MT | Change Station
CLOSE
Current Station
Personal Weather Station
Location: Cascade, MT
Elevation: 3376 ft
Nearby Weather Stations

Elev 3376 ft 47.27 °N, 111.70 °W | Updated 5 minutes ago

Snow
Snow
32.5 °F
Feels Like 27 °F
N
6.0
Wind Variable Wind from South
Gusts 9.0 mph

Today
High -- | Low -- °F
--% Chance of Precip.
Yesterday
High -- | Low -- °F
Precip. -- in
8:13 AM 4:43 PM
Waxing Crescent, 45% visible
Pressure 29.89 in
Visibility 10.0 miles
Clouds Overcast 5000 ft
Windchill 27 °F
Dew Point 23 °F
Humidity 68%
Rainfall 0.00 in
Snow Depth Not available.
UV 0 out of 12
Pollen .10 out of 12
Air Quality Not available.
Flu Activity Not available.
METAR KGTF 280753Z 20011KT 10SM OVC050 M02/M05 A2976 RMK AO2 SLP122 T10221050 $

More Conditions Fewer Conditions

Pressure 29.89 in
Visibility 10.0 miles
Clouds Overcast 5000 ft
Windchill 27 °F
Dew Point 23 °F
Humidity 68%
Rainfall 0.00 in
Snow Depth Not available.
UV 0 out of 12
Pollen .10 out of 12
Air Quality Not available.
Flu Activity Not available.
METAR KGTF 280753Z 20011KT 10SM OVC050 M02/M05 A2976 RMK AO2 SLP122 T10221050 $

More Conditions Fewer Conditions

10-Day Weather Forecast

Almanac

Astronomy

Dec. 28, 2014 Rise Set
Actual Time
Civil Twilight
Nautical Twilight
Astronomical Twilight
Moon
Length of Visible Light
Length of Day
Tomorrow will be .
, % of the Moon is Illuminated

Today's Extremes

State Highs State Lows

Community

WunderPhotos

Upload Photos

1,781,210 photos uploaded!

WunderBlogs® & News

Nearby

Air Quality

  Air Quality AQ Index Pollutant
Not available.

Snow Depth

Station Depth Elevation

Earthquake Activity

City Distance Mag. Time & Date
Minimum magnitude displayed is 2.5.

Coastal Water Temperatures

Place Temperature

Nearby Weather Stations